sensor_id;sensor_type;location;lat;lon;timestamp;P1;durP1;ratioP1;P2;durP2;ratioP2
2021;SDS011;1015;49.756;6.994;2022-09-12T00:01:07;11.80;;;9.70;;
2021;SDS011;1015;49.756;6.994;2022-09-12T00:03:36;13.03;;;10.20;;
2021;SDS011;1015;49.756;6.994;2022-09-12T00:06:09;13.87;;;9.73;;
2021;SDS011;1015;49.756;6.994;2022-09-12T00:08:37;11.60;;;9.03;;
2021;SDS011;1015;49.756;6.994;2022-09-12T00:11:05;15.60;;;10.60;;
2021;SDS011;1015;49.756;6.994;2022-09-12T00:13:34;13.87;;;10.50;;
2021;SDS011;1015;49.756;6.994;2022-09-12T00:16:02;15.97;;;11.20;;
2021;SDS011;1015;49.756;6.994;2022-09-12T00:18:30;13.50;;;10.50;;
2021;SDS011;1015;49.756;6.994;2022-09-12T00:21:00;13.47;;;10.80;;
2021;SDS011;1015;49.756;6.994;2022-09-12T00:23:30;15.60;;;10.47;;
2021;SDS011;1015;49.756;6.994;2022-09-12T00:25:58;17.33;;;10.90;;
2021;SDS011;1015;49.756;6.994;2022-09-12T00:28:25;15.70;;;10.77;;
2021;SDS011;1015;49.756;6.994;2022-09-12T00:30:52;16.37;;;11.07;;
2021;SDS011;1015;49.756;6.994;2022-09-12T00:33:19;13.33;;;10.00;;
2021;SDS011;1015;49.756;6.994;2022-09-12T00:35:46;15.20;;;9.50;;
2021;SDS011;1015;49.756;6.994;2022-09-12T00:38:17;13.50;;;9.50;;
2021;SDS011;1015;49.756;6.994;2022-09-12T00:40:47;13.87;;;10.30;;
2021;SDS011;1015;49.756;6.994;2022-09-12T00:43:31;11.83;;;9.67;;
2021;SDS011;1015;49.756;6.994;2022-09-12T00:46:00;13.87;;;9.77;;
2021;SDS011;1015;49.756;6.994;2022-09-12T00:48:32;14.00;;;10.47;;
2021;SDS011;1015;49.756;6.994;2022-09-12T00:51:01;17.63;;;10.80;;
2021;SDS011;1015;49.756;6.994;2022-09-12T00:53:28;16.70;;;10.40;;
2021;SDS011;1015;49.756;6.994;2022-09-12T00:55:57;11.33;;;9.70;;
2021;SDS011;1015;49.756;6.994;2022-09-12T00:58:25;13.30;;;10.17;;
2021;SDS011;1015;49.756;6.994;2022-09-12T01:00:55;11.80;;;9.53;;
2021;SDS011;1015;49.756;6.994;2022-09-12T01:03:23;13.87;;;10.93;;
2021;SDS011;1015;49.756;6.994;2022-09-12T01:05:52;15.67;;;10.43;;
2021;SDS011;1015;49.756;6.994;2022-09-12T01:08:25;14.87;;;11.37;;
2021;SDS011;1015;49.756;6.994;2022-09-12T01:10:53;20.00;;;11.20;;
2021;SDS011;1015;49.756;6.994;2022-09-12T01:13:23;15.37;;;11.00;;
2021;SDS011;1015;49.756;6.994;2022-09-12T01:15:51;16.67;;;11.80;;
2021;SDS011;1015;49.756;6.994;2022-09-12T01:18:19;18.53;;;10.87;;
2021;SDS011;1015;49.756;6.994;2022-09-12T01:21:08;15.33;;;11.23;;
2021;SDS011;1015;49.756;6.994;2022-09-12T01:26:52;17.50;;;10.30;;
2021;SDS011;1015;49.756;6.994;2022-09-12T01:33:01;12.93;;;9.30;;
2021;SDS011;1015;49.756;6.994;2022-09-12T01:36:00;13.43;;;10.00;;
2021;SDS011;1015;49.756;6.994;2022-09-12T01:38:37;14.27;;;10.60;;
2021;SDS011;1015;49.756;6.994;2022-09-12T01:41:09;12.53;;;10.37;;
2021;SDS011;1015;49.756;6.994;2022-09-12T01:43:48;18.27;;;12.30;;
2021;SDS011;1015;49.756;6.994;2022-09-12T01:46:22;15.13;;;11.60;;
2021;SDS011;1015;49.756;6.994;2022-09-12T01:48:58;18.43;;;11.77;;
2021;SDS011;1015;49.756;6.994;2022-09-12T01:51:30;12.23;;;9.40;;
2021;SDS011;1015;49.756;6.994;2022-09-12T01:54:04;13.93;;;10.37;;
2021;SDS011;1015;49.756;6.994;2022-09-12T01:56:34;15.67;;;10.20;;
2021;SDS011;1015;49.756;6.994;2022-09-12T01:59:04;11.60;;;8.93;;
2021;SDS011;1015;49.756;6.994;2022-09-12T02:01:35;12.87;;;9.37;;
2021;SDS011;1015;49.756;6.994;2022-09-12T02:04:09;13.40;;;10.00;;
2021;SDS011;1015;49.756;6.994;2022-09-12T02:06:40;12.00;;;8.53;;
2021;SDS011;1015;49.756;6.994;2022-09-12T02:09:14;11.00;;;8.80;;
2021;SDS011;1015;49.756;6.994;2022-09-12T02:11:46;12.40;;;9.77;;
2021;SDS011;1015;49.756;6.994;2022-09-12T02:14:15;12.47;;;9.60;;
2021;SDS011;1015;49.756;6.994;2022-09-12T02:16:47;12.80;;;8.57;;
2021;SDS011;1015;49.756;6.994;2022-09-12T02:19:18;14.10;;;8.90;;
2021;SDS011;1015;49.756;6.994;2022-09-12T02:21:49;12.27;;;8.57;;
2021;SDS011;1015;49.756;6.994;2022-09-12T02:24:19;12.40;;;9.10;;
2021;SDS011;1015;49.756;6.994;2022-09-12T02:26:48;10.80;;;8.60;;
2021;SDS011;1015;49.756;6.994;2022-09-12T02:29:19;10.70;;;8.37;;
2021;SDS011;1015;49.756;6.994;2022-09-12T02:31:47;12.57;;;9.63;;
2021;SDS011;1015;49.756;6.994;2022-09-12T02:34:29;12.33;;;9.80;;
2021;SDS011;1015;49.756;6.994;2022-09-12T02:37:05;11.67;;;8.97;;
2021;SDS011;1015;49.756;6.994;2022-09-12T02:39:40;14.90;;;9.53;;
2021;SDS011;1015;49.756;6.994;2022-09-12T02:42:08;10.80;;;8.93;;
2021;SDS011;1015;49.756;6.994;2022-09-12T02:44:35;11.80;;;9.30;;
2021;SDS011;1015;49.756;6.994;2022-09-12T02:47:03;13.50;;;10.37;;
2021;SDS011;1015;49.756;6.994;2022-09-12T02:49:35;15.80;;;10.80;;
2021;SDS011;1015;49.756;6.994;2022-09-12T02:52:02;13.90;;;10.20;;
2021;SDS011;1015;49.756;6.994;2022-09-12T02:54:29;12.77;;;10.07;;
2021;SDS011;1015;49.756;6.994;2022-09-12T02:56:57;16.60;;;11.07;;
2021;SDS011;1015;49.756;6.994;2022-09-12T02:59:24;17.40;;;11.67;;
2021;SDS011;1015;49.756;6.994;2022-09-12T03:01:58;17.77;;;11.13;;
2021;SDS011;1015;49.756;6.994;2022-09-12T03:04:47;14.50;;;10.70;;
2021;SDS011;1015;49.756;6.994;2022-09-12T03:07:40;16.97;;;11.70;;
2021;SDS011;1015;49.756;6.994;2022-09-12T03:10:22;14.00;;;10.60;;
2021;SDS011;1015;49.756;6.994;2022-09-12T03:12:56;12.60;;;10.10;;
2021;SDS011;1015;49.756;6.994;2022-09-12T03:15:35;14.20;;;10.73;;
2021;SDS011;1015;49.756;6.994;2022-09-12T03:18:12;17.07;;;11.00;;
2021;SDS011;1015;49.756;6.994;2022-09-12T03:20:49;14.40;;;11.40;;
2021;SDS011;1015;49.756;6.994;2022-09-12T03:23:28;12.20;;;10.57;;
2021;SDS011;1015;49.756;6.994;2022-09-12T03:25:59;15.73;;;11.53;;
2021;SDS011;1015;49.756;6.994;2022-09-12T03:28:31;14.17;;;10.90;;
2021;SDS011;1015;49.756;6.994;2022-09-12T03:30:59;19.87;;;11.80;;
2021;SDS011;1015;49.756;6.994;2022-09-12T03:33:36;18.80;;;12.20;;
2021;SDS011;1015;49.756;6.994;2022-09-12T03:36:04;18.77;;;12.43;;
2021;SDS011;1015;49.756;6.994;2022-09-12T03:38:32;17.10;;;13.17;;
2021;SDS011;1015;49.756;6.994;2022-09-12T03:40:59;19.10;;;13.60;;
2021;SDS011;1015;49.756;6.994;2022-09-12T03:43:26;18.10;;;13.47;;
2021;SDS011;1015;49.756;6.994;2022-09-12T03:45:53;18.23;;;12.90;;
2021;SDS011;1015;49.756;6.994;2022-09-12T03:48:20;20.40;;;13.80;;
2021;SDS011;1015;49.756;6.994;2022-09-12T03:50:47;20.50;;;13.83;;
2021;SDS011;1015;49.756;6.994;2022-09-12T03:53:15;17.67;;;12.70;;
2021;SDS011;1015;49.756;6.994;2022-09-12T03:55:42;20.17;;;13.90;;
2021;SDS011;1015;49.756;6.994;2022-09-12T03:58:09;19.00;;;12.83;;
2021;SDS011;1015;49.756;6.994;2022-09-12T04:00:37;20.83;;;14.00;;
2021;SDS011;1015;49.756;6.994;2022-09-12T04:03:05;21.50;;;14.67;;
2021;SDS011;1015;49.756;6.994;2022-09-12T04:05:32;25.57;;;15.03;;
2021;SDS011;1015;49.756;6.994;2022-09-12T04:07:58;19.83;;;14.00;;
2021;SDS011;1015;49.756;6.994;2022-09-12T04:10:27;22.77;;;14.23;;
2021;SDS011;1015;49.756;6.994;2022-09-12T04:12:54;25.13;;;15.70;;
2021;SDS011;1015;49.756;6.994;2022-09-12T04:15:21;23.63;;;15.40;;
2021;SDS011;1015;49.756;6.994;2022-09-12T04:17:48;20.00;;;15.30;;
2021;SDS011;1015;49.756;6.994;2022-09-12T04:20:15;21.00;;;16.37;;
2021;SDS011;1015;49.756;6.994;2022-09-12T04:22:43;28.00;;;17.37;;
2021;SDS011;1015;49.756;6.994;2022-09-12T04:25:10;25.77;;;17.87;;
2021;SDS011;1015;49.756;6.994;2022-09-12T04:27:38;22.00;;;16.90;;
2021;SDS011;1015;49.756;6.994;2022-09-12T04:30:06;25.27;;;17.40;;
2021;SDS011;1015;49.756;6.994;2022-09-12T04:32:34;27.40;;;17.17;;
2021;SDS011;1015;49.756;6.994;2022-09-12T04:35:01;21.47;;;14.80;;
2021;SDS011;1015;49.756;6.994;2022-09-12T04:37:29;22.10;;;15.40;;
2021;SDS011;1015;49.756;6.994;2022-09-12T04:39:56;18.60;;;14.60;;
2021;SDS011;1015;49.756;6.994;2022-09-12T04:42:23;24.20;;;14.87;;
2021;SDS011;1015;49.756;6.994;2022-09-12T04:44:52;17.80;;;13.90;;
2021;SDS011;1015;49.756;6.994;2022-09-12T04:47:19;17.37;;;13.73;;
2021;SDS011;1015;49.756;6.994;2022-09-12T04:49:47;22.20;;;13.93;;
2021;SDS011;1015;49.756;6.994;2022-09-12T04:52:15;21.33;;;14.17;;
2021;SDS011;1015;49.756;6.994;2022-09-12T04:54:42;21.43;;;14.40;;
2021;SDS011;1015;49.756;6.994;2022-09-12T04:57:09;22.00;;;14.97;;
2021;SDS011;1015;49.756;6.994;2022-09-12T04:59:37;18.50;;;13.50;;
2021;SDS011;1015;49.756;6.994;2022-09-12T05:02:05;21.53;;;14.80;;
2021;SDS011;1015;49.756;6.994;2022-09-12T05:04:32;18.20;;;14.60;;
2021;SDS011;1015;49.756;6.994;2022-09-12T05:07:00;18.50;;;13.37;;
2021;SDS011;1015;49.756;6.994;2022-09-12T05:09:32;21.40;;;14.60;;
2021;SDS011;1015;49.756;6.994;2022-09-12T05:11:59;20.07;;;14.17;;
2021;SDS011;1015;49.756;6.994;2022-09-12T05:14:26;16.80;;;13.20;;
2021;SDS011;1015;49.756;6.994;2022-09-12T05:16:53;18.60;;;14.70;;
2021;SDS011;1015;49.756;6.994;2022-09-12T05:19:25;19.30;;;15.10;;
2021;SDS011;1015;49.756;6.994;2022-09-12T05:21:52;26.53;;;16.13;;
2021;SDS011;1015;49.756;6.994;2022-09-12T05:24:19;26.47;;;16.90;;
2021;SDS011;1015;49.756;6.994;2022-09-12T05:26:46;21.37;;;15.73;;
2021;SDS011;1015;49.756;6.994;2022-09-12T05:29:13;21.70;;;15.87;;
2021;SDS011;1015;49.756;6.994;2022-09-12T05:31:40;23.10;;;16.77;;
2021;SDS011;1015;49.756;6.994;2022-09-12T05:34:07;23.93;;;15.80;;
2021;SDS011;1015;49.756;6.994;2022-09-12T05:36:36;19.17;;;16.20;;
2021;SDS011;1015;49.756;6.994;2022-09-12T05:39:03;19.57;;;14.97;;
2021;SDS011;1015;49.756;6.994;2022-09-12T05:41:31;15.67;;;13.70;;
2021;SDS011;1015;49.756;6.994;2022-09-12T05:43:59;16.00;;;14.30;;
2021;SDS011;1015;49.756;6.994;2022-09-12T05:46:29;13.87;;;11.30;;
2021;SDS011;1015;49.756;6.994;2022-09-12T05:49:01;13.30;;;11.90;;
2021;SDS011;1015;49.756;6.994;2022-09-12T05:51:31;12.83;;;11.17;;
2021;SDS011;1015;49.756;6.994;2022-09-12T05:54:01;12.30;;;10.90;;
2021;SDS011;1015;49.756;6.994;2022-09-12T05:56:30;13.33;;;11.97;;
2021;SDS011;1015;49.756;6.994;2022-09-12T05:58:59;12.07;;;10.87;;
2021;SDS011;1015;49.756;6.994;2022-09-12T06:01:27;13.23;;;11.83;;
2021;SDS011;1015;49.756;6.994;2022-09-12T06:03:55;13.37;;;11.97;;
2021;SDS011;1015;49.756;6.994;2022-09-12T06:06:25;14.47;;;11.40;;
2021;SDS011;1015;49.756;6.994;2022-09-12T06:08:54;15.50;;;13.20;;
2021;SDS011;1015;49.756;6.994;2022-09-12T06:11:25;14.10;;;12.53;;
2021;SDS011;1015;49.756;6.994;2022-09-12T06:13:54;15.40;;;13.47;;
2021;SDS011;1015;49.756;6.994;2022-09-12T06:16:22;14.10;;;12.53;;
2021;SDS011;1015;49.756;6.994;2022-09-12T06:18:52;16.33;;;13.70;;
2021;SDS011;1015;49.756;6.994;2022-09-12T06:21:21;14.23;;;12.60;;
2021;SDS011;1015;49.756;6.994;2022-09-12T06:23:49;14.87;;;12.27;;
2021;SDS011;1015;49.756;6.994;2022-09-12T06:26:16;15.30;;;13.20;;
2021;SDS011;1015;49.756;6.994;2022-09-12T06:28:47;13.23;;;11.93;;
2021;SDS011;1015;49.756;6.994;2022-09-12T06:31:15;16.53;;;12.20;;
2021;SDS011;1015;49.756;6.994;2022-09-12T06:33:44;11.93;;;10.73;;
2021;SDS011;1015;49.756;6.994;2022-09-12T06:36:14;11.93;;;10.67;;
2021;SDS011;1015;49.756;6.994;2022-09-12T06:38:42;14.70;;;12.60;;
2021;SDS011;1015;49.756;6.994;2022-09-12T06:41:10;12.57;;;11.33;;
2021;SDS011;1015;49.756;6.994;2022-09-12T06:43:38;18.50;;;16.60;;
2021;SDS011;1015;49.756;6.994;2022-09-12T06:46:07;17.27;;;12.30;;
2021;SDS011;1015;49.756;6.994;2022-09-12T06:48:35;12.23;;;10.90;;
2021;SDS011;1015;49.756;6.994;2022-09-12T06:51:02;11.63;;;10.53;;
2021;SDS011;1015;49.756;6.994;2022-09-12T06:53:31;30.00;;;25.30;;
2021;SDS011;1015;49.756;6.994;2022-09-12T06:56:01;19.40;;;15.90;;
2021;SDS011;1015;49.756;6.994;2022-09-12T06:58:30;14.70;;;12.93;;
2021;SDS011;1015;49.756;6.994;2022-09-12T07:01:01;11.00;;;9.90;;
2021;SDS011;1015;49.756;6.994;2022-09-12T07:03:31;11.20;;;10.20;;
2021;SDS011;1015;49.756;6.994;2022-09-12T07:06:00;11.13;;;8.83;;
2021;SDS011;1015;49.756;6.994;2022-09-12T07:08:28;9.30;;;8.50;;
2021;SDS011;1015;49.756;6.994;2022-09-12T07:10:55;10.60;;;9.57;;
2021;SDS011;1015;49.756;6.994;2022-09-12T07:13:23;10.83;;;9.83;;
2021;SDS011;1015;49.756;6.994;2022-09-12T07:15:50;10.63;;;9.70;;
2021;SDS011;1015;49.756;6.994;2022-09-12T07:18:17;12.00;;;10.90;;
2021;SDS011;1015;49.756;6.994;2022-09-12T07:20:46;11.43;;;10.10;;
2021;SDS011;1015;49.756;6.994;2022-09-12T07:23:13;10.47;;;9.50;;
2021;SDS011;1015;49.756;6.994;2022-09-12T07:25:40;9.80;;;8.87;;
2021;SDS011;1015;49.756;6.994;2022-09-12T07:28:07;10.07;;;9.13;;
2021;SDS011;1015;49.756;6.994;2022-09-12T07:30:35;10.33;;;8.70;;
2021;SDS011;1015;49.756;6.994;2022-09-12T07:33:02;9.30;;;8.40;;
2021;SDS011;1015;49.756;6.994;2022-09-12T07:35:31;8.67;;;7.77;;
2021;SDS011;1015;49.756;6.994;2022-09-12T07:38:00;7.83;;;7.03;;
2021;SDS011;1015;49.756;6.994;2022-09-12T07:40:27;8.00;;;7.30;;
2021;SDS011;1015;49.756;6.994;2022-09-12T07:42:54;7.60;;;6.90;;
2021;SDS011;1015;49.756;6.994;2022-09-12T07:45:21;7.10;;;6.43;;
2021;SDS011;1015;49.756;6.994;2022-09-12T07:47:48;8.83;;;6.83;;
2021;SDS011;1015;49.756;6.994;2022-09-12T07:50:19;6.70;;;6.10;;
2021;SDS011;1015;49.756;6.994;2022-09-12T07:52:46;6.47;;;5.87;;
2021;SDS011;1015;49.756;6.994;2022-09-12T07:55:14;6.77;;;6.17;;
2021;SDS011;1015;49.756;6.994;2022-09-12T07:57:41;6.60;;;6.00;;
2021;SDS011;1015;49.756;6.994;2022-09-12T08:00:08;6.70;;;6.20;;
2021;SDS011;1015;49.756;6.994;2022-09-12T08:02:36;7.00;;;6.40;;
2021;SDS011;1015;49.756;6.994;2022-09-12T08:05:03;6.10;;;5.60;;
2021;SDS011;1015;49.756;6.994;2022-09-12T08:07:30;6.27;;;5.77;;
2021;SDS011;1015;49.756;6.994;2022-09-12T08:09:58;6.43;;;5.83;;
2021;SDS011;1015;49.756;6.994;2022-09-12T08:12:27;5.83;;;5.33;;
2021;SDS011;1015;49.756;6.994;2022-09-12T08:14:56;6.10;;;5.60;;
2021;SDS011;1015;49.756;6.994;2022-09-12T08:17:23;5.70;;;5.20;;
2021;SDS011;1015;49.756;6.994;2022-09-12T08:19:50;5.23;;;4.73;;
2021;SDS011;1015;49.756;6.994;2022-09-12T08:22:17;5.60;;;5.10;;
2021;SDS011;1015;49.756;6.994;2022-09-12T08:24:46;5.73;;;5.20;;
2021;SDS011;1015;49.756;6.994;2022-09-12T08:27:13;5.17;;;4.77;;
2021;SDS011;1015;49.756;6.994;2022-09-12T08:29:41;5.50;;;5.10;;
2021;SDS011;1015;49.756;6.994;2022-09-12T08:32:08;5.17;;;4.60;;
2021;SDS011;1015;49.756;6.994;2022-09-12T08:34:35;4.77;;;4.47;;
2021;SDS011;1015;49.756;6.994;2022-09-12T08:37:02;4.83;;;4.50;;
2021;SDS011;1015;49.756;6.994;2022-09-12T08:39:29;5.27;;;4.87;;
2021;SDS011;1015;49.756;6.994;2022-09-12T08:41:58;5.40;;;4.90;;
2021;SDS011;1015;49.756;6.994;2022-09-12T08:47:31;4.83;;;4.43;;
2021;SDS011;1015;49.756;6.994;2022-09-12T08:50:02;4.73;;;4.43;;
2021;SDS011;1015;49.756;6.994;2022-09-12T08:52:37;5.60;;;4.93;;
2021;SDS011;1015;49.756;6.994;2022-09-12T08:55:12;5.53;;;5.07;;
2021;SDS011;1015;49.756;6.994;2022-09-12T08:57:56;5.10;;;4.70;;
2021;SDS011;1015;49.756;6.994;2022-09-12T09:00:26;4.87;;;4.37;;
2021;SDS011;1015;49.756;6.994;2022-09-12T09:06:01;4.50;;;4.10;;
2021;SDS011;1015;49.756;6.994;2022-09-12T09:11:29;4.50;;;4.20;;
2021;SDS011;1015;49.756;6.994;2022-09-12T09:14:11;4.50;;;4.17;;
2021;SDS011;1015;49.756;6.994;2022-09-12T09:17:10;4.47;;;4.10;;
2021;SDS011;1015;49.756;6.994;2022-09-12T09:19:41;4.30;;;4.00;;
2021;SDS011;1015;49.756;6.994;2022-09-12T09:22:13;4.13;;;3.80;;
2021;SDS011;1015;49.756;6.994;2022-09-12T09:24:56;4.40;;;4.10;;
2021;SDS011;1015;49.756;6.994;2022-09-12T09:27:28;4.33;;;4.03;;
2021;SDS011;1015;49.756;6.994;2022-09-12T09:29:58;4.50;;;4.10;;
2021;SDS011;1015;49.756;6.994;2022-09-12T09:32:28;4.10;;;3.80;;
2021;SDS011;1015;49.756;6.994;2022-09-12T09:35:14;4.20;;;3.80;;
2021;SDS011;1015;49.756;6.994;2022-09-12T09:37:43;6.23;;;3.80;;
2021;SDS011;1015;49.756;6.994;2022-09-12T09:40:26;4.30;;;4.00;;
2021;SDS011;1015;49.756;6.994;2022-09-12T09:43:04;4.13;;;3.83;;
2021;SDS011;1015;49.756;6.994;2022-09-12T09:45:37;3.77;;;3.43;;
2021;SDS011;1015;49.756;6.994;2022-09-12T09:48:10;3.97;;;3.67;;
2021;SDS011;1015;49.756;6.994;2022-09-12T09:50:41;4.10;;;3.80;;
2021;SDS011;1015;49.756;6.994;2022-09-12T09:53:11;3.70;;;3.50;;
2021;SDS011;1015;49.756;6.994;2022-09-12T09:55:49;3.53;;;3.20;;
2021;SDS011;1015;49.756;6.994;2022-09-12T09:58:26;3.50;;;3.30;;
2021;SDS011;1015;49.756;6.994;2022-09-12T10:00:57;3.50;;;3.27;;
2021;SDS011;1015;49.756;6.994;2022-09-12T10:03:28;4.00;;;3.70;;
2021;SDS011;1015;49.756;6.994;2022-09-12T10:06:00;3.40;;;3.20;;
2021;SDS011;1015;49.756;6.994;2022-09-12T10:08:31;3.30;;;3.00;;
2021;SDS011;1015;49.756;6.994;2022-09-12T10:11:01;2.97;;;2.77;;
2021;SDS011;1015;49.756;6.994;2022-09-12T10:13:32;3.30;;;3.10;;
2021;SDS011;1015;49.756;6.994;2022-09-12T10:16:02;3.40;;;3.10;;
2021;SDS011;1015;49.756;6.994;2022-09-12T10:18:36;3.87;;;3.63;;
2021;SDS011;1015;49.756;6.994;2022-09-12T10:21:12;4.90;;;3.30;;
2021;SDS011;1015;49.756;6.994;2022-09-12T10:23:46;3.40;;;3.20;;
2021;SDS011;1015;49.756;6.994;2022-09-12T10:26:18;3.30;;;3.10;;
2021;SDS011;1015;49.756;6.994;2022-09-12T10:28:46;3.47;;;3.27;;
2021;SDS011;1015;49.756;6.994;2022-09-12T10:31:22;3.53;;;3.23;;
2021;SDS011;1015;49.756;6.994;2022-09-12T10:33:54;3.60;;;3.30;;
2021;SDS011;1015;49.756;6.994;2022-09-12T10:36:23;4.20;;;3.80;;
2021;SDS011;1015;49.756;6.994;2022-09-12T10:38:52;4.00;;;3.70;;
2021;SDS011;1015;49.756;6.994;2022-09-12T10:41:20;4.00;;;3.70;;
2021;SDS011;1015;49.756;6.994;2022-09-12T10:43:48;4.00;;;3.60;;
2021;SDS011;1015;49.756;6.994;2022-09-12T10:46:20;4.33;;;3.97;;
2021;SDS011;1015;49.756;6.994;2022-09-12T10:48:49;3.43;;;3.23;;
2021;SDS011;1015;49.756;6.994;2022-09-12T10:51:26;3.93;;;3.50;;
2021;SDS011;1015;49.756;6.994;2022-09-12T10:53:54;3.73;;;3.40;;
2021;SDS011;1015;49.756;6.994;2022-09-12T10:56:24;3.90;;;3.20;;
2021;SDS011;1015;49.756;6.994;2022-09-12T10:59:00;4.10;;;2.90;;
2021;SDS011;1015;49.756;6.994;2022-09-12T11:01:37;3.10;;;2.90;;
2021;SDS011;1015;49.756;6.994;2022-09-12T11:04:14;3.03;;;2.80;;
2021;SDS011;1015;49.756;6.994;2022-09-12T11:06:53;3.20;;;3.00;;
2021;SDS011;1015;49.756;6.994;2022-09-12T11:09:39;2.70;;;2.50;;
2021;SDS011;1015;49.756;6.994;2022-09-12T11:12:15;3.10;;;2.90;;
2021;SDS011;1015;49.756;6.994;2022-09-12T11:14:54;2.67;;;2.30;;
2021;SDS011;1015;49.756;6.994;2022-09-12T11:17:30;4.57;;;2.90;;
2021;SDS011;1015;49.756;6.994;2022-09-12T11:23:09;2.87;;;2.67;;
2021;SDS011;1015;49.756;6.994;2022-09-12T11:25:59;2.67;;;2.47;;
2021;SDS011;1015;49.756;6.994;2022-09-12T11:28:35;3.07;;;2.80;;
2021;SDS011;1015;49.756;6.994;2022-09-12T11:31:23;2.97;;;2.77;;
2021;SDS011;1015;49.756;6.994;2022-09-12T11:34:06;2.93;;;2.73;;
2021;SDS011;1015;49.756;6.994;2022-09-12T11:36:36;5.90;;;2.97;;
2021;SDS011;1015;49.756;6.994;2022-09-12T11:39:13;4.00;;;2.80;;
2021;SDS011;1015;49.756;6.994;2022-09-12T11:41:41;2.60;;;2.40;;
2021;SDS011;1015;49.756;6.994;2022-09-12T11:44:14;2.60;;;2.40;;
2021;SDS011;1015;49.756;6.994;2022-09-12T11:46:44;2.77;;;2.50;;
2021;SDS011;1015;49.756;6.994;2022-09-12T11:49:19;2.70;;;2.50;;
2021;SDS011;1015;49.756;6.994;2022-09-12T11:51:54;2.80;;;2.60;;
2021;SDS011;1015;49.756;6.994;2022-09-12T11:54:28;2.77;;;2.57;;
2021;SDS011;1015;49.756;6.994;2022-09-12T11:57:03;3.03;;;2.83;;
2021;SDS011;1015;49.756;6.994;2022-09-12T11:59:39;2.47;;;2.27;;
2021;SDS011;1015;49.756;6.994;2022-09-12T12:02:16;2.17;;;2.07;;
2021;SDS011;1015;49.756;6.994;2022-09-12T12:05:01;2.93;;;2.60;;
2021;SDS011;1015;49.756;6.994;2022-09-12T12:07:40;2.57;;;2.37;;
2021;SDS011;1015;49.756;6.994;2022-09-12T12:10:22;2.60;;;2.40;;
2021;SDS011;1015;49.756;6.994;2022-09-12T12:12:52;2.20;;;2.10;;
2021;SDS011;1015;49.756;6.994;2022-09-12T12:15:21;3.87;;;2.40;;
2021;SDS011;1015;49.756;6.994;2022-09-12T12:18:03;2.40;;;2.20;;
2021;SDS011;1015;49.756;6.994;2022-09-12T12:20:32;2.50;;;2.30;;
2021;SDS011;1015;49.756;6.994;2022-09-12T12:23:00;2.50;;;2.30;;
2021;SDS011;1015;49.756;6.994;2022-09-12T12:25:49;2.40;;;2.20;;
2021;SDS011;1015;49.756;6.994;2022-09-12T12:31:17;2.40;;;2.20;;
2021;SDS011;1015;49.756;6.994;2022-09-12T12:36:52;3.47;;;2.33;;
2021;SDS011;1015;49.756;6.994;2022-09-12T12:48:32;2.40;;;2.20;;
2021;SDS011;1015;49.756;6.994;2022-09-12T12:51:16;2.03;;;1.83;;
2021;SDS011;1015;49.756;6.994;2022-09-12T12:54:03;2.50;;;2.30;;
2021;SDS011;1015;49.756;6.994;2022-09-12T12:56:59;2.27;;;2.17;;
2021;SDS011;1015;49.756;6.994;2022-09-12T12:59:28;3.00;;;2.13;;
2021;SDS011;1015;49.756;6.994;2022-09-12T13:01:56;2.23;;;2.13;;
2021;SDS011;1015;49.756;6.994;2022-09-12T13:04:25;2.57;;;2.37;;
2021;SDS011;1015;49.756;6.994;2022-09-12T13:06:55;2.33;;;2.13;;
2021;SDS011;1015;49.756;6.994;2022-09-12T13:09:26;2.03;;;1.90;;
2021;SDS011;1015;49.756;6.994;2022-09-12T13:11:57;2.10;;;2.00;;
2021;SDS011;1015;49.756;6.994;2022-09-12T13:14:46;2.03;;;1.93;;
2021;SDS011;1015;49.756;6.994;2022-09-12T13:17:17;1.83;;;1.73;;
2021;SDS011;1015;49.756;6.994;2022-09-12T13:19:51;2.53;;;2.00;;
2021;SDS011;1015;49.756;6.994;2022-09-12T13:22:36;2.60;;;2.00;;
2021;SDS011;1015;49.756;6.994;2022-09-12T13:25:15;1.80;;;1.70;;
2021;SDS011;1015;49.756;6.994;2022-09-12T13:27:55;2.13;;;2.03;;
2021;SDS011;1015;49.756;6.994;2022-09-12T13:30:24;1.77;;;1.67;;
2021;SDS011;1015;49.756;6.994;2022-09-12T13:32:52;2.07;;;1.97;;
2021;SDS011;1015;49.756;6.994;2022-09-12T13:35:21;1.80;;;1.70;;
2021;SDS011;1015;49.756;6.994;2022-09-12T13:37:58;1.80;;;1.70;;
2021;SDS011;1015;49.756;6.994;2022-09-12T13:40:38;2.43;;;1.80;;
2021;SDS011;1015;49.756;6.994;2022-09-12T13:43:13;1.83;;;1.73;;
2021;SDS011;1015;49.756;6.994;2022-09-12T13:45:44;2.27;;;2.07;;
2021;SDS011;1015;49.756;6.994;2022-09-12T13:48:13;2.00;;;1.90;;
2021;SDS011;1015;49.756;6.994;2022-09-12T13:50:45;1.60;;;1.50;;
2021;SDS011;1015;49.756;6.994;2022-09-12T13:53:16;1.60;;;1.50;;
2021;SDS011;1015;49.756;6.994;2022-09-12T13:55:47;2.47;;;2.00;;
2021;SDS011;1015;49.756;6.994;2022-09-12T13:58:19;1.80;;;1.70;;
2021;SDS011;1015;49.756;6.994;2022-09-12T14:01:00;1.80;;;1.70;;
2021;SDS011;1015;49.756;6.994;2022-09-12T14:03:30;1.93;;;1.83;;
2021;SDS011;1015;49.756;6.994;2022-09-12T14:06:15;2.80;;;1.90;;
2021;SDS011;1015;49.756;6.994;2022-09-12T14:08:44;1.90;;;1.80;;
2021;SDS011;1015;49.756;6.994;2022-09-12T14:11:16;1.80;;;1.70;;
2021;SDS011;1015;49.756;6.994;2022-09-12T14:13:50;2.03;;;1.93;;
2021;SDS011;1015;49.756;6.994;2022-09-12T14:16:19;1.97;;;1.87;;
2021;SDS011;1015;49.756;6.994;2022-09-12T14:18:47;1.90;;;1.80;;
2021;SDS011;1015;49.756;6.994;2022-09-12T14:21:19;2.33;;;1.90;;
2021;SDS011;1015;49.756;6.994;2022-09-12T14:23:59;1.90;;;1.80;;
2021;SDS011;1015;49.756;6.994;2022-09-12T14:26:28;2.30;;;2.10;;
2021;SDS011;1015;49.756;6.994;2022-09-12T14:28:59;1.90;;;1.80;;
2021;SDS011;1015;49.756;6.994;2022-09-12T14:31:29;1.90;;;1.80;;
2021;SDS011;1015;49.756;6.994;2022-09-12T14:34:07;3.30;;;1.80;;
2021;SDS011;1015;49.756;6.994;2022-09-12T14:36:38;1.77;;;1.67;;
2021;SDS011;1015;49.756;6.994;2022-09-12T14:39:21;2.10;;;1.90;;
2021;SDS011;1015;49.756;6.994;2022-09-12T14:41:58;1.80;;;1.70;;
2021;SDS011;1015;49.756;6.994;2022-09-12T14:44:28;2.30;;;2.00;;
2021;SDS011;1015;49.756;6.994;2022-09-12T14:47:00;1.77;;;1.67;;
2021;SDS011;1015;49.756;6.994;2022-09-12T14:49:37;2.17;;;2.00;;
2021;SDS011;1015;49.756;6.994;2022-09-12T14:52:06;1.90;;;1.80;;
2021;SDS011;1015;49.756;6.994;2022-09-12T14:54:54;1.87;;;1.77;;
2021;SDS011;1015;49.756;6.994;2022-09-12T14:57:35;1.77;;;1.67;;
2021;SDS011;1015;49.756;6.994;2022-09-12T15:00:14;2.07;;;1.90;;
2021;SDS011;1015;49.756;6.994;2022-09-12T15:02:48;1.73;;;1.63;;
2021;SDS011;1015;49.756;6.994;2022-09-12T15:05:20;2.97;;;2.00;;
2021;SDS011;1015;49.756;6.994;2022-09-12T15:07:56;2.73;;;2.10;;
2021;SDS011;1015;49.756;6.994;2022-09-12T15:10:25;2.10;;;2.00;;
2021;SDS011;1015;49.756;6.994;2022-09-12T15:13:11;3.47;;;2.07;;
2021;SDS011;1015;49.756;6.994;2022-09-12T15:15:41;2.03;;;1.80;;
2021;SDS011;1015;49.756;6.994;2022-09-12T15:18:10;1.93;;;1.83;;
2021;SDS011;1015;49.756;6.994;2022-09-12T15:20:38;2.23;;;2.13;;
2021;SDS011;1015;49.756;6.994;2022-09-12T15:23:09;2.20;;;2.00;;
2021;SDS011;1015;49.756;6.994;2022-09-12T15:25:44;1.93;;;1.83;;
2021;SDS011;1015;49.756;6.994;2022-09-12T15:28:14;3.90;;;1.77;;
2021;SDS011;1015;49.756;6.994;2022-09-12T15:30:43;1.90;;;1.80;;
2021;SDS011;1015;49.756;6.994;2022-09-12T15:33:12;2.00;;;1.80;;
2021;SDS011;1015;49.756;6.994;2022-09-12T15:35:39;2.57;;;2.37;;
2021;SDS011;1015;49.756;6.994;2022-09-12T15:38:06;2.20;;;2.07;;
2021;SDS011;1015;49.756;6.994;2022-09-12T15:40:33;2.23;;;2.10;;
2021;SDS011;1015;49.756;6.994;2022-09-12T15:43:00;2.00;;;1.90;;
2021;SDS011;1015;49.756;6.994;2022-09-12T15:45:28;2.87;;;2.20;;
2021;SDS011;1015;49.756;6.994;2022-09-12T15:47:56;2.47;;;2.30;;
2021;SDS011;1015;49.756;6.994;2022-09-12T15:50:24;2.37;;;2.20;;
2021;SDS011;1015;49.756;6.994;2022-09-12T15:52:52;2.50;;;2.33;;
2021;SDS011;1015;49.756;6.994;2022-09-12T15:55:20;2.27;;;2.10;;
2021;SDS011;1015;49.756;6.994;2022-09-12T15:57:48;2.07;;;1.97;;
2021;SDS011;1015;49.756;6.994;2022-09-12T16:00:16;2.67;;;2.30;;
2021;SDS011;1015;49.756;6.994;2022-09-12T16:02:43;2.50;;;2.30;;